Impacts METAR Board INFO
IDs:

KMSP - Minneapolis-St Paul, MN, US

Updated at: 1958 UTC 18 Feb 2018
Potential Impact None Slight Moderate High
Time18/07Z 18/08Z 18/09Z 18/10Z 18/11Z 18/12Z 18/13Z 18/14Z 18/15Z 18/16Z 18/17Z 18/18Z 18/19Z
VIS10 10 10 10 10 10 10 10 10 10 10 10 10
CIG-- 240 240 85 75 110 120 110 110 100 110 100 110
CoverSCTOVCOVCOVCOVCOVCOVCOVCOVCOVCOVCOVCOVC
FltCatVFRVFRVFRVFRVFRVFRVFRVFRVFRVFRVFRVFRVFR
WX--------------------------
WDir021010012090120140130130150150160180
WSpd0 3 4 3 7 13 8 13 19 16 19 19 14
WGst-- -- -- -- -- -- -- -- -- -- 30 29 22
Raw hourly METARs
KMSP 180653Z 00000KT 10SM SCT250 M07/M13 A3005 RMK AO2 SLP188 T10721128
KMSP 180753Z 21003KT 10SM OVC240 M06/M13 A3010 RMK AO2 SLP204 T10611128
KMSP 180853Z 10004KT 10SM SCT100 OVC240 M07/M12 A3009 RMK AO2 SLP202 T10671122 53005
KMSP 180953Z 12003KT 10SM BKN085 OVC100 M07/M12 A3006 RMK AO2 SLP189 T10671122
KMSP 181053Z 09007KT 10SM OVC075 M06/M12 A3004 RMK AO2 SLP183 T10611117
KMSP 181153Z 12013KT 10SM OVC110 M06/M12 A2998 RMK AO2 SLP163 4/003 70001 T10611122 11056 21072 58039
KMSP 181253Z 14008KT 10SM OVC120 M06/M13 A2995 RMK AO2 SLP155 T10561128
KMSP 181353Z 13013KT 10SM OVC110 M05/M13 A2991 RMK AO2 SLP143 T10501128
KMSP 181453Z 13019KT 10SM OVC110 M04/M10 A2985 RMK AO2 SLP121 T10441100 58041
KMSP 181553Z 15016KT 10SM OVC100 M03/M07 A2981 RMK AO2 PK WND 13026/1456 SLP109 T10331072
KMSP 181653Z 15019G30KT 10SM OVC110 M01/M04 A2973 RMK AO2 PK WND 14031/1640 SLP080 T10061044
KMSP 181753Z 16019G29KT 10SM OVC100 02/M03 A2967 RMK AO2 PK WND 16029/1748 SLP056 4/003 T00171028 10017 21061 58061
KMSP 181853Z 18014G22KT 10SM BKN110 OVC250 04/M02 A2964 RMK AO2 SLP049 T00391017